String Prairie, Texas
Current Conditions -  °F | °C
As of 6:15 PM on Sunday 23 Nov 2014 (Local Time) from K3T5 Reporting Station
Clear Clear  
Wind Chill: 71°   Ceiling: Unl
Heat Index: 71°   Visibility: 10mi
Dew Point: 51°   Wind: 5mph
Humidity: 50%   Direction: 200°SSW
Pressure: 29.57"   Gusts: NA
Location:  29.8725°N, 97.3223°W
Report Text: K3T5 240015Z AUTO 20004KT 10SM CLR 21/11 A2957 RMK AO2 T02140105
Loading
Personal Weather Stations






























Interactive Weather Map New forecast layout! Learn more

10-Day Weather Forecast

Advertisements
Track Severe Weather on mobile